Britton, Michigan
Current Conditions -  °F | °C
As of 10:53 PM on Saturday 25 Oct 2014 (Local Time) from KADG Reporting Station
Clear Clear  
Wind Chill: 52°   Ceiling: Unl
Heat Index: 52°   Visibility: 10mi
Dew Point: 32°   Wind: 5mph
Humidity: 47%   Direction: 290°WNW
Pressure: 29.87"   Gusts: NA
Location:  41.99°N, 83.83°W
Report Text: KADG 260253Z AUTO 29004KT 10SM CLR 11/00 A2987 RMK AO2 SLP116 T01110000 53012
Loading
Personal Weather Stations






























Interactive Weather Map
Tropical Storm Tracking
New forecast layout! Learn more

10-Day Weather Forecast

Advertisements
Track Severe Weather on mobile